aviador You're here:

YPKG Decoded Metar

KALGOORLIE in AUSTRALIA
Report Time2018-02-25 11:00:00
UTC Time2018-02-25 11:13:25
Flight Rules vfr VFR
Wind040° at 06 kt
W.Decomp.*RWY 36: 4.7 kt HW 3.8 kt RCW
RWY 11: 2.0 kt HW 5.7 kt LCW
W.Rank040° ranks 21
Current wind is below 040° avg. (7.0)
Visibility9999 m
Phenomena:N/A
Clouds:Broken 086 Hf
Expected CloudBase > 400 ft AGL from Temp-Dew spread
Ceiling8,600 ft
Temp19°C (ISA +6)
Dew Point18°C (94% RH)
QNH1011 hPa
Density Alt2,270 ft
Elevation1,181 ft
Report Wrong Elevation
Raw Report
METAR YPKG 251100Z AUTO 04006KT 9999 // BKN086 19/18 Q1011=

Extra information for YPKG:More info

Metar Taf Metar & Taf Last 4 Metars F.Rules Stats Wind Profile Meteogram Temp Stats Airport Information Weather charts Add Link Nearby VenuesMetar ALERT Operation Metar Decoded Social comments